Time,TemperatureF,DewpointF,PressureIn,WindDirection,WindDirectionDegrees,WindSpeedMPH,WindSpeedGustMPH,Humidity,HourlyPrecipIn,Conditions,Clouds,dailyrainin,SoftwareType,DateUTC
2013-06-09 00:03:00,70.4,69.0,29.96,ENE,67,0.0,-999.0,94,-99.99,,,0.02,weatherlink.com 1.10,2013-06-09 05:03:00,
2013-06-09 00:18:00,70.3,69.0,29.96,ENE,67,0.0,-999.0,95,-99.99,,,0.00,weatherlink.com 1.10,2013-06-09 05:18:00,
2013-06-09 00:33:00,70.2,69.0,29.95,ENE,67,0.0,-999.0,95,-99.99,,,0.00,weatherlink.com 1.10,2013-06-09 05:33:00,
2013-06-09 00:48:00,70.0,69.0,29.94,ENE,67,0.0,-999.0,95,-99.99,,,0.00,weatherlink.com 1.10,2013-06-09 05:48:00,
2013-06-09 01:03:00,70.0,69.0,29.95,ENE,67,0.0,-999.0,95,-99.99,,,0.00,weatherlink.com 1.10,2013-06-09 06:03:00,
2013-06-09 01:18:00,70.0,69.0,29.95,ENE,67,0.0,-999.0,95,-99.99,,,0.00,weatherlink.com 1.10,2013-06-09 06:18:00,
2013-06-09 01:33:00,69.9,69.0,29.95,ENE,67,0.0,-999.0,95,-99.99,,,0.00,weatherlink.com 1.10,2013-06-09 06:33:00,
2013-06-09 01:48:00,69.8,68.0,29.95,ENE,67,0.0,-999.0,95,-99.99,,,0.00,weatherlink.com 1.10,2013-06-09 06:48:00,
2013-06-09 02:03:00,69.8,68.0,29.95,ENE,67,1.0,-999.0,95,-99.99,,,0.00,weatherlink.com 1.10,2013-06-09 07:03:00,
2013-06-09 02:18:00,70.3,69.0,29.95,ENE,68,0.0,-999.0,96,-99.99,,,0.00,weatherlink.com 1.10,2013-06-09 07:18:00,
2013-06-09 02:33:00,70.4,69.0,29.95,East,88,0.0,-999.0,96,-99.99,,,0.00,weatherlink.com 1.10,2013-06-09 07:33:00,
2013-06-09 02:48:00,70.4,69.0,29.94,East,88,0.0,-999.0,96,-99.99,,,0.00,weatherlink.com 1.10,2013-06-09 07:48:00,
2013-06-09 03:03:00,70.4,69.0,29.94,East,88,0.0,-999.0,96,-99.99,,,0.00,weatherlink.com 1.10,2013-06-09 08:03:00,
2013-06-09 03:18:00,70.3,69.0,29.94,East,88,0.0,-999.0,96,-99.99,,,0.00,weatherlink.com 1.10,2013-06-09 08:18:00,
2013-06-09 03:33:00,70.3,69.0,29.93,East,88,0.0,-999.0,96,-99.99,,,0.00,weatherlink.com 1.10,2013-06-09 08:33:00,
2013-06-09 03:48:00,70.3,69.0,29.95,East,88,0.0,-999.0,96,-99.99,,,0.00,weatherlink.com 1.10,2013-06-09 08:48:00,
2013-06-09 04:03:00,70.2,69.0,29.94,East,88,0.0,-999.0,96,-99.99,,,0.00,weatherlink.com 1.10,2013-06-09 09:03:00,
2013-06-09 04:18:00,70.1,69.0,29.94,East,88,0.0,-999.0,96,-99.99,,,0.00,weatherlink.com 1.10,2013-06-09 09:18:00,
2013-06-09 04:33:00,70.1,69.0,29.94,NE,46,1.0,-999.0,96,-99.99,,,0.00,weatherlink.com 1.10,2013-06-09 09:33:00,
2013-06-09 04:48:00,70.2,69.0,29.93,NE,41,0.0,-999.0,96,-99.99,,,0.00,weatherlink.com 1.10,2013-06-09 09:48:00,
2013-06-09 05:03:00,70.3,69.0,29.93,NE,41,1.0,-999.0,96,-99.99,,,0.00,weatherlink.com 1.10,2013-06-09 10:03:00,
2013-06-09 05:18:00,70.3,69.0,29.93,ENE,59,1.0,-999.0,96,-99.99,,,0.00,weatherlink.com 1.10,2013-06-09 10:18:00,
2013-06-09 05:33:00,70.4,69.0,29.94,ENE,59,0.0,-999.0,96,-99.99,,,0.00,weatherlink.com 1.10,2013-06-09 10:33:00,
2013-06-09 05:48:00,70.5,69.0,29.94,ENE,59,0.0,-999.0,96,-99.99,,,0.00,weatherlink.com 1.10,2013-06-09 10:48:00,
2013-06-09 06:03:00,70.6,70.0,29.95,ENE,59,0.0,-999.0,96,-99.99,,,0.00,weatherlink.com 1.10,2013-06-09 11:03:00,
2013-06-09 06:18:00,70.8,70.0,29.94,ENE,59,0.0,-999.0,96,-99.99,,,0.00,weatherlink.com 1.10,2013-06-09 11:18:00,
2013-06-09 06:33:00,70.9,70.0,29.95,ENE,59,2.0,-999.0,96,-99.99,,,0.00,weatherlink.com 1.10,2013-06-09 11:33:00,
2013-06-09 06:48:00,71.0,70.0,29.95,ENE,59,1.0,-999.0,96,-99.99,,,0.00,weatherlink.com 1.10,2013-06-09 11:48:00,
2013-06-09 07:03:00,71.2,70.0,29.95,ENE,59,0.0,-999.0,96,-99.99,,,0.00,weatherlink.com 1.10,2013-06-09 12:03:00,
2013-06-09 07:18:00,71.4,70.0,29.96,ENE,59,0.0,-999.0,96,-99.99,,,0.00,weatherlink.com 1.10,2013-06-09 12:18:00,
2013-06-09 07:33:00,71.8,71.0,29.96,ESE,111,0.0,-999.0,97,-99.99,,,0.00,weatherlink.com 1.10,2013-06-09 12:33:00,
2013-06-09 07:48:00,71.9,71.0,29.95,ESE,111,1.0,-999.0,97,-99.99,,,0.00,weatherlink.com 1.10,2013-06-09 12:48:00,
2013-06-09 08:03:00,72.0,71.0,29.96,ESE,122,0.0,-999.0,96,-99.99,,,0.00,weatherlink.com 1.10,2013-06-09 13:03:00,
2013-06-09 08:18:00,72.1,71.0,29.97,ESE,103,0.0,-999.0,97,-99.99,,,0.00,weatherlink.com 1.10,2013-06-09 13:18:00,
2013-06-09 08:33:00,72.5,72.0,29.96,ESE,106,1.0,-999.0,97,-99.99,,,0.00,weatherlink.com 1.10,2013-06-09 13:33:00,
2013-06-09 08:48:00,72.8,72.0,29.96,ESE,117,0.0,-999.0,97,-99.99,,,0.00,weatherlink.com 1.10,2013-06-09 13:48:00,
2013-06-09 09:03:00,73.1,72.0,29.95,East,81,0.0,-999.0,97,-99.99,,,0.00,weatherlink.com 1.10,2013-06-09 14:03:00,
2013-06-09 09:18:00,73.4,73.0,29.96,North,355,0.0,-999.0,97,-99.99,,,0.00,weatherlink.com 1.10,2013-06-09 14:18:00,
2013-06-09 09:34:00,74.5,74.0,29.95,North,355,0.0,-999.0,97,-99.99,,,0.00,weatherlink.com 1.10,2013-06-09 14:34:00,
2013-06-09 09:49:00,75.2,74.0,29.94,North,355,0.0,-999.0,97,-99.99,,,0.00,weatherlink.com 1.10,2013-06-09 14:49:00,
2013-06-09 10:04:00,76.0,75.0,29.94,North,355,0.0,-999.0,97,-99.99,,,0.00,weatherlink.com 1.10,2013-06-09 15:04:00,
2013-06-09 10:19:00,77.5,76.0,29.94,West,266,1.0,-999.0,96,-99.99,,,0.00,weatherlink.com 1.10,2013-06-09 15:19:00,
2013-06-09 10:34:00,80.9,77.0,29.94,ESE,123,0.0,-999.0,87,-99.99,,,0.00,weatherlink.com 1.10,2013-06-09 15:34:00,
2013-06-09 10:49:00,82.2,75.0,29.95,WSW,244,1.0,-999.0,79,-99.99,,,0.00,weatherlink.com 1.10,2013-06-09 15:49:00,
2013-06-09 11:04:00,83.6,76.0,29.96,WSW,253,0.0,-999.0,77,-99.99,,,0.00,weatherlink.com 1.10,2013-06-09 16:04:00,
2013-06-09 11:19:00,84.4,75.0,29.96,SSW,200,0.0,-999.0,73,-99.99,,,0.00,weatherlink.com 1.10,2013-06-09 16:19:00,
2013-06-09 11:34:00,86.1,73.0,29.97,SE,124,1.0,-999.0,64,-99.99,,,0.00,weatherlink.com 1.10,2013-06-09 16:34:00,
2013-06-09 11:49:00,87.1,73.0,29.96,ESE,111,0.0,-999.0,64,-99.99,,,0.00,weatherlink.com 1.10,2013-06-09 16:49:00,
2013-06-09 12:04:00,87.9,74.0,29.96,ESE,123,1.0,-999.0,64,-99.99,,,0.00,weatherlink.com 1.10,2013-06-09 17:04:00,
2013-06-09 12:19:00,88.8,75.0,29.96,East,91,1.0,-999.0,63,-99.99,,,0.00,weatherlink.com 1.10,2013-06-09 17:19:00,
2013-06-09 12:34:00,89.2,73.0,29.95,East,100,0.0,-999.0,60,-99.99,,,0.00,weatherlink.com 1.10,2013-06-09 17:34:00,
2013-06-09 12:49:00,90.1,74.0,29.95,SW,217,0.0,-999.0,59,-99.99,,,0.00,weatherlink.com 1.10,2013-06-09 17:49:00,
2013-06-09 13:04:00,91.6,75.0,29.95,SSE,158,0.0,-999.0,59,-99.99,,,0.00,weatherlink.com 1.10,2013-06-09 18:04:00,
2013-06-09 13:19:00,91.8,75.0,29.94,SE,142,0.0,-999.0,59,-99.99,,,0.00,weatherlink.com 1.10,2013-06-09 18:19:00,
2013-06-09 13:34:00,92.1,77.0,29.93,South,187,1.0,-999.0,61,-99.99,,,0.00,weatherlink.com 1.10,2013-06-09 18:34:00,
2013-06-09 13:49:00,92.2,75.0,29.91,SW,218,0.0,-999.0,57,-99.99,,,0.00,weatherlink.com 1.10,2013-06-09 18:49:00,
2013-06-09 14:04:00,92.3,74.0,29.90,SE,140,1.0,-999.0,56,-99.99,,,0.00,weatherlink.com 1.10,2013-06-09 19:04:00,
2013-06-09 14:19:00,93.0,75.0,29.90,SW,234,3.0,-999.0,56,-99.99,,,0.00,weatherlink.com 1.10,2013-06-09 19:19:00,
2013-06-09 14:34:00,91.7,75.0,29.91,SE,127,4.0,-999.0,59,-99.99,,,0.00,weatherlink.com 1.10,2013-06-09 19:34:00,
2013-06-09 14:49:00,92.8,75.0,29.91,South,175,0.0,-999.0,57,-99.99,,,0.00,weatherlink.com 1.10,2013-06-09 19:49:00,
2013-06-09 15:05:00,92.1,75.0,29.91,ESE,109,2.0,-999.0,58,-99.99,,,0.00,weatherlink.com 1.10,2013-06-09 20:05:00,
2013-06-09 15:20:00,93.5,75.0,29.91,SE,132,2.0,-999.0,56,-99.99,,,0.00,weatherlink.com 1.10,2013-06-09 20:20:00,
2013-06-09 15:35:00,93.6,75.0,29.90,ESE,121,0.0,-999.0,55,-99.99,,,0.00,weatherlink.com 1.10,2013-06-09 20:35:00,
2013-06-09 15:50:00,92.9,75.0,29.90,SSE,160,0.0,-999.0,57,-99.99,,,0.00,weatherlink.com 1.10,2013-06-09 20:50:00,
2013-06-09 16:05:00,93.6,77.0,29.89,SSW,208,0.0,-999.0,59,-99.99,,,0.00,weatherlink.com 1.10,2013-06-09 21:05:00,
2013-06-09 16:20:00,92.7,76.0,29.89,SSE,161,0.0,-999.0,58,-99.99,,,0.00,weatherlink.com 1.10,2013-06-09 21:20:00,
2013-06-09 16:35:00,92.9,75.0,29.88,ENE,57,1.0,-999.0,57,-99.99,,,0.00,weatherlink.com 1.10,2013-06-09 21:35:00,
2013-06-09 16:50:00,92.3,76.0,29.88,South,173,0.0,-999.0,59,-99.99,,,0.00,weatherlink.com 1.10,2013-06-09 21:50:00,
2013-06-09 17:05:00,92.7,76.0,29.88,SSW,210,0.0,-999.0,58,-99.99,,,0.00,weatherlink.com 1.10,2013-06-09 22:05:00,
2013-06-09 17:20:00,91.9,76.0,29.88,South,178,0.0,-999.0,59,-99.99,,,0.00,weatherlink.com 1.10,2013-06-09 22:20:00,
2013-06-09 17:35:00,90.6,76.0,29.88,South,178,0.0,-999.0,63,-99.99,,,0.00,weatherlink.com 1.10,2013-06-09 22:35:00,
2013-06-09 17:50:00,89.9,78.0,29.89,South,178,0.0,-999.0,68,-99.99,,,0.00,weatherlink.com 1.10,2013-06-09 22:50:00,
2013-06-09 18:05:00,89.0,77.0,29.89,South,177,0.0,-999.0,67,-99.99,,,0.00,weatherlink.com 1.10,2013-06-09 23:05:00,
2013-06-09 18:20:00,88.1,77.0,29.90,South,177,0.0,-999.0,69,-99.99,,,0.00,weatherlink.com 1.10,2013-06-09 23:20:00,
2013-06-09 18:35:00,86.4,76.0,29.93,NW,322,11.0,-999.0,71,-99.99,,,0.00,weatherlink.com 1.10,2013-06-09 23:35:00,
2013-06-09 18:50:00,79.8,72.0,29.97,NNE,23,2.0,-999.0,77,-99.99,,,0.06,weatherlink.com 1.10,2013-06-09 23:50:00,
2013-06-09 19:05:00,75.9,70.0,29.95,SE,137,4.0,-999.0,83,-99.99,,,0.17,weatherlink.com 1.10,2013-06-10 00:05:00,
2013-06-09 19:20:00,74.8,71.0,29.94,ESE,108,0.0,-999.0,88,-99.99,,,0.17,weatherlink.com 1.10,2013-06-10 00:20:00,
2013-06-09 19:35:00,74.1,71.0,29.94,ESE,108,0.0,-999.0,89,-99.99,,,0.17,weatherlink.com 1.10,2013-06-10 00:35:00,
2013-06-09 19:50:00,73.0,70.0,29.95,East,86,0.0,-999.0,91,-99.99,,,0.17,weatherlink.com 1.10,2013-06-10 00:50:00,
2013-06-09 20:05:00,72.2,70.0,29.95,East,98,0.0,-999.0,93,-99.99,,,0.17,weatherlink.com 1.10,2013-06-10 01:05:00,
2013-06-09 20:20:00,71.9,70.0,29.93,ENE,61,0.0,-999.0,93,-99.99,,,0.18,weatherlink.com 1.10,2013-06-10 01:20:00,
2013-06-09 20:35:00,71.7,70.0,29.92,NE,49,0.0,-999.0,93,-99.99,,,0.18,weatherlink.com 1.10,2013-06-10 01:35:00,
2013-06-09 20:50:00,71.6,70.0,29.93,NE,49,0.0,-999.0,93,-99.99,,,0.18,weatherlink.com 1.10,2013-06-10 01:50:00,
2013-06-09 21:05:00,71.5,69.0,29.94,NE,49,0.0,-999.0,93,-99.99,,,0.18,weatherlink.com 1.10,2013-06-10 02:05:00,
2013-06-09 21:20:00,71.3,69.0,29.95,NE,49,0.0,-999.0,93,-99.99,,,0.18,weatherlink.com 1.10,2013-06-10 02:20:00,
2013-06-09 21:35:00,71.2,69.0,29.96,NE,49,0.0,-999.0,94,-99.99,,,0.18,weatherlink.com 1.10,2013-06-10 02:35:00,
2013-06-09 21:50:00,71.2,69.0,29.95,NE,50,0.0,-999.0,94,-99.99,,,0.18,weatherlink.com 1.10,2013-06-10 02:50:00,
2013-06-09 22:05:00,71.2,70.0,29.95,NE,51,0.0,-999.0,95,-99.99,,,0.18,weatherlink.com 1.10,2013-06-10 03:05:00,
2013-06-09 22:20:00,71.2,70.0,29.96,ENE,78,1.0,-999.0,95,-99.99,,,0.18,weatherlink.com 1.10,2013-06-10 03:20:00,
2013-06-09 22:35:00,71.1,70.0,29.96,ENE,78,0.0,-999.0,95,-99.99,,,0.18,weatherlink.com 1.10,2013-06-10 03:35:00,
2013-06-09 22:50:00,71.0,70.0,29.96,ENE,78,0.0,-999.0,95,-99.99,,,0.18,weatherlink.com 1.10,2013-06-10 03:50:00,
2013-06-09 23:05:00,70.9,70.0,29.95,ENE,78,0.0,-999.0,95,-99.99,,,0.18,weatherlink.com 1.10,2013-06-10 04:05:00,
2013-06-09 23:20:00,70.8,69.0,29.95,ENE,78,0.0,-999.0,95,-99.99,,,0.18,weatherlink.com 1.10,2013-06-10 04:20:00,
2013-06-09 23:35:00,70.7,69.0,29.96,ENE,78,0.0,-999.0,95,-99.99,,,0.18,weatherlink.com 1.10,2013-06-10 04:35:00,
2013-06-09 23:50:00,70.6,69.0,29.96,ENE,78,0.0,-999.0,95,-99.99,,,0.18,weatherlink.com 1.10,2013-06-10 04:50:00,